sensor_id;sensor_type;location;lat;lon;timestamp;temperature;humidity
39045;DHT22;52192;52.002;5.956;2023-07-08T00:02:12;24.20;48.90
39045;DHT22;52192;52.002;5.956;2023-07-08T00:04:39;24.20;49.00
39045;DHT22;52192;52.002;5.956;2023-07-08T00:07:07;24.10;49.10
39045;DHT22;52192;52.002;5.956;2023-07-08T00:09:35;24.10;49.70
39045;DHT22;52192;52.002;5.956;2023-07-08T00:12:01;24.00;49.20
39045;DHT22;52192;52.002;5.956;2023-07-08T00:14:29;24.00;49.30
39045;DHT22;52192;52.002;5.956;2023-07-08T00:16:55;24.00;49.40
39045;DHT22;52192;52.002;5.956;2023-07-08T00:19:20;23.90;49.40
39045;DHT22;52192;52.002;5.956;2023-07-08T00:21:50;23.90;50.10
39045;DHT22;52192;52.002;5.956;2023-07-08T00:24:17;23.90;49.60
39045;DHT22;52192;52.002;5.956;2023-07-08T00:26:42;23.90;49.70
39045;DHT22;52192;52.002;5.956;2023-07-08T00:29:12;23.90;49.70
39045;DHT22;52192;52.002;5.956;2023-07-08T00:31:38;23.80;49.70
39045;DHT22;52192;52.002;5.956;2023-07-08T00:34:04;23.80;49.80
39045;DHT22;52192;52.002;5.956;2023-07-08T00:36:30;23.70;49.80
39045;DHT22;52192;52.002;5.956;2023-07-08T00:38:56;23.70;49.90
39045;DHT22;52192;52.002;5.956;2023-07-08T00:41:32;23.70;50.00
39045;DHT22;52192;52.002;5.956;2023-07-08T00:43:59;23.70;50.70
39045;DHT22;52192;52.002;5.956;2023-07-08T00:51:36;23.60;50.30
39045;DHT22;52192;52.002;5.956;2023-07-08T00:54:16;23.60;50.30
39045;DHT22;52192;52.002;5.956;2023-07-08T00:57:01;23.50;50.30
39045;DHT22;52192;52.002;5.956;2023-07-08T00:59:31;23.50;50.50
39045;DHT22;52192;52.002;5.956;2023-07-08T01:01:59;23.40;50.50
39045;DHT22;52192;52.002;5.956;2023-07-08T01:04:39;23.40;50.60
39045;DHT22;52192;52.002;5.956;2023-07-08T01:07:09;23.40;50.60
39045;DHT22;52192;52.002;5.956;2023-07-08T01:09:38;23.30;50.70
39045;DHT22;52192;52.002;5.956;2023-07-08T01:12:12;23.30;50.80
39045;DHT22;52192;52.002;5.956;2023-07-08T01:14:38;23.20;50.90
39045;DHT22;52192;52.002;5.956;2023-07-08T01:17:08;23.20;50.90
39045;DHT22;52192;52.002;5.956;2023-07-08T01:19:40;23.20;51.00
39045;DHT22;52192;52.002;5.956;2023-07-08T01:22:07;23.20;51.20
39045;DHT22;52192;52.002;5.956;2023-07-08T01:24:41;23.10;51.30
39045;DHT22;52192;52.002;5.956;2023-07-08T01:27:12;23.10;51.40
39045;DHT22;52192;52.002;5.956;2023-07-08T01:29:39;23.00;51.50
39045;DHT22;52192;52.002;5.956;2023-07-08T01:32:05;22.90;51.50
39045;DHT22;52192;52.002;5.956;2023-07-08T01:34:34;22.90;51.60
39045;DHT22;52192;52.002;5.956;2023-07-08T01:37:02;22.90;51.70
39045;DHT22;52192;52.002;5.956;2023-07-08T01:39:30;22.90;51.80
39045;DHT22;52192;52.002;5.956;2023-07-08T01:41:57;22.90;52.10
39045;DHT22;52192;52.002;5.956;2023-07-08T01:44:36;22.80;52.10
39045;DHT22;52192;52.002;5.956;2023-07-08T01:47:13;22.80;52.30
39045;DHT22;52192;52.002;5.956;2023-07-08T01:49:40;22.80;52.40
39045;DHT22;52192;52.002;5.956;2023-07-08T01:52:07;22.70;52.60
39045;DHT22;52192;52.002;5.956;2023-07-08T01:54:34;22.70;52.60
39045;DHT22;52192;52.002;5.956;2023-07-08T01:57:00;22.70;52.60
39045;DHT22;52192;52.002;5.956;2023-07-08T01:59:27;22.60;52.60
39045;DHT22;52192;52.002;5.956;2023-07-08T02:01:53;22.60;52.70
39045;DHT22;52192;52.002;5.956;2023-07-08T02:04:22;22.60;52.80
39045;DHT22;52192;52.002;5.956;2023-07-08T02:06:59;22.60;52.80
39045;DHT22;52192;52.002;5.956;2023-07-08T02:09:25;22.60;53.00
39045;DHT22;52192;52.002;5.956;2023-07-08T02:11:54;22.50;52.90
39045;DHT22;52192;52.002;5.956;2023-07-08T02:14:21;22.60;53.10
39045;DHT22;52192;52.002;5.956;2023-07-08T02:16:47;22.50;53.00
39045;DHT22;52192;52.002;5.956;2023-07-08T02:19:13;22.50;53.10
39045;DHT22;52192;52.002;5.956;2023-07-08T02:21:39;22.50;53.20
39045;DHT22;52192;52.002;5.956;2023-07-08T02:24:05;22.50;53.30
39045;DHT22;52192;52.002;5.956;2023-07-08T02:26:31;22.50;53.40
39045;DHT22;52192;52.002;5.956;2023-07-08T02:28:58;22.40;53.50
39045;DHT22;52192;52.002;5.956;2023-07-08T02:31:24;22.40;53.40
39045;DHT22;52192;52.002;5.956;2023-07-08T02:33:50;22.40;53.50
39045;DHT22;52192;52.002;5.956;2023-07-08T02:36:16;22.30;53.50
39045;DHT22;52192;52.002;5.956;2023-07-08T02:38:42;22.30;53.70
39045;DHT22;52192;52.002;5.956;2023-07-08T02:41:08;22.30;53.90
39045;DHT22;52192;52.002;5.956;2023-07-08T02:43:33;22.30;53.90
39045;DHT22;52192;52.002;5.956;2023-07-08T02:45:59;22.30;53.90
39045;DHT22;52192;52.002;5.956;2023-07-08T02:48:24;22.30;54.00
39045;DHT22;52192;52.002;5.956;2023-07-08T02:50:50;22.30;54.20
39045;DHT22;52192;52.002;5.956;2023-07-08T02:53:16;22.20;54.20
39045;DHT22;52192;52.002;5.956;2023-07-08T02:55:41;22.20;54.40
39045;DHT22;52192;52.002;5.956;2023-07-08T02:58:09;22.20;54.50
39045;DHT22;52192;52.002;5.956;2023-07-08T03:00:35;22.20;54.60
39045;DHT22;52192;52.002;5.956;2023-07-08T03:03:03;22.10;54.70
39045;DHT22;52192;52.002;5.956;2023-07-08T03:05:29;22.10;54.80
39045;DHT22;52192;52.002;5.956;2023-07-08T03:07:56;22.10;54.80
39045;DHT22;52192;52.002;5.956;2023-07-08T03:10:21;22.00;54.80
39045;DHT22;52192;52.002;5.956;2023-07-08T03:12:47;22.00;54.90
39045;DHT22;52192;52.002;5.956;2023-07-08T03:15:13;22.00;55.20
39045;DHT22;52192;52.002;5.956;2023-07-08T03:17:38;22.00;55.30
39045;DHT22;52192;52.002;5.956;2023-07-08T03:20:04;21.90;55.20
39045;DHT22;52192;52.002;5.956;2023-07-08T03:22:33;21.90;55.40
39045;DHT22;52192;52.002;5.956;2023-07-08T03:24:58;21.90;55.40
39045;DHT22;52192;52.002;5.956;2023-07-08T03:27:24;21.90;55.60
39045;DHT22;52192;52.002;5.956;2023-07-08T03:29:50;21.80;55.60
39045;DHT22;52192;52.002;5.956;2023-07-08T03:32:16;21.80;55.60
39045;DHT22;52192;52.002;5.956;2023-07-08T03:34:41;21.80;55.60
39045;DHT22;52192;52.002;5.956;2023-07-08T03:37:08;21.80;55.70
39045;DHT22;52192;52.002;5.956;2023-07-08T03:39:34;21.80;55.70
39045;DHT22;52192;52.002;5.956;2023-07-08T03:42:00;21.80;55.80
39045;DHT22;52192;52.002;5.956;2023-07-08T03:44:26;21.70;55.80
39045;DHT22;52192;52.002;5.956;2023-07-08T03:46:52;21.70;55.90
39045;DHT22;52192;52.002;5.956;2023-07-08T03:49:19;21.70;56.00
39045;DHT22;52192;52.002;5.956;2023-07-08T03:51:48;21.70;56.00
39045;DHT22;52192;52.002;5.956;2023-07-08T03:54:15;21.70;56.00
39045;DHT22;52192;52.002;5.956;2023-07-08T03:56:41;21.70;56.10
39045;DHT22;52192;52.002;5.956;2023-07-08T03:59:08;21.70;56.10
39045;DHT22;52192;52.002;5.956;2023-07-08T04:01:33;21.70;56.10
39045;DHT22;52192;52.002;5.956;2023-07-08T04:04:02;21.70;56.80
39045;DHT22;52192;52.002;5.956;2023-07-08T04:06:28;21.70;56.30
39045;DHT22;52192;52.002;5.956;2023-07-08T04:08:57;21.70;56.30
39045;DHT22;52192;52.002;5.956;2023-07-08T04:11:23;21.70;56.40
39045;DHT22;52192;52.002;5.956;2023-07-08T04:13:49;21.70;56.30
39045;DHT22;52192;52.002;5.956;2023-07-08T04:16:42;21.70;56.30
39045;DHT22;52192;52.002;5.956;2023-07-08T04:19:11;21.80;56.20
39045;DHT22;52192;52.002;5.956;2023-07-08T04:21:40;21.70;56.30
39045;DHT22;52192;52.002;5.956;2023-07-08T04:24:06;21.80;56.30
39045;DHT22;52192;52.002;5.956;2023-07-08T04:26:33;21.80;56.30
39045;DHT22;52192;52.002;5.956;2023-07-08T04:29:11;21.80;56.30
39045;DHT22;52192;52.002;5.956;2023-07-08T04:31:37;21.80;56.20
39045;DHT22;52192;52.002;5.956;2023-07-08T04:34:03;21.80;56.40
39045;DHT22;52192;52.002;5.956;2023-07-08T04:36:28;21.90;56.50
39045;DHT22;52192;52.002;5.956;2023-07-08T04:38:55;21.90;56.40
39045;DHT22;52192;52.002;5.956;2023-07-08T04:41:23;21.80;56.40
39045;DHT22;52192;52.002;5.956;2023-07-08T04:43:51;21.90;56.40
39045;DHT22;52192;52.002;5.956;2023-07-08T04:46:45;21.90;56.30
39045;DHT22;52192;52.002;5.956;2023-07-08T04:49:12;22.00;56.20
39045;DHT22;52192;52.002;5.956;2023-07-08T04:51:39;22.00;56.40
39045;DHT22;52192;52.002;5.956;2023-07-08T04:54:06;22.00;56.20
39045;DHT22;52192;52.002;5.956;2023-07-08T04:56:43;22.00;56.20
39045;DHT22;52192;52.002;5.956;2023-07-08T04:59:15;22.00;56.20
39045;DHT22;52192;52.002;5.956;2023-07-08T05:01:41;22.10;56.40
39045;DHT22;52192;52.002;5.956;2023-07-08T05:04:10;22.10;56.40
39045;DHT22;52192;52.002;5.956;2023-07-08T05:06:36;22.10;56.20
39045;DHT22;52192;52.002;5.956;2023-07-08T05:09:03;22.10;56.20
39045;DHT22;52192;52.002;5.956;2023-07-08T05:11:29;22.00;56.20
39045;DHT22;52192;52.002;5.956;2023-07-08T05:13:55;22.00;56.30
39045;DHT22;52192;52.002;5.956;2023-07-08T05:16:20;22.00;56.40
39045;DHT22;52192;52.002;5.956;2023-07-08T05:18:46;22.00;56.50
39045;DHT22;52192;52.002;5.956;2023-07-08T05:21:12;22.00;57.10
39045;DHT22;52192;52.002;5.956;2023-07-08T05:23:38;22.00;56.40
39045;DHT22;52192;52.002;5.956;2023-07-08T05:26:05;22.10;56.40
39045;DHT22;52192;52.002;5.956;2023-07-08T05:28:31;22.10;56.40
39045;DHT22;52192;52.002;5.956;2023-07-08T05:30:57;22.20;56.30
39045;DHT22;52192;52.002;5.956;2023-07-08T05:33:24;22.30;56.20
39045;DHT22;52192;52.002;5.956;2023-07-08T05:35:50;22.30;56.10
39045;DHT22;52192;52.002;5.956;2023-07-08T05:38:15;22.40;56.20
39045;DHT22;52192;52.002;5.956;2023-07-08T05:40:41;22.40;56.10
39045;DHT22;52192;52.002;5.956;2023-07-08T05:43:07;22.50;56.10
39045;DHT22;52192;52.002;5.956;2023-07-08T05:45:33;22.50;55.90
39045;DHT22;52192;52.002;5.956;2023-07-08T05:48:00;22.50;55.90
39045;DHT22;52192;52.002;5.956;2023-07-08T05:50:26;22.60;56.00
39045;DHT22;52192;52.002;5.956;2023-07-08T05:52:51;22.60;55.90
39045;DHT22;52192;52.002;5.956;2023-07-08T05:55:17;22.70;56.00
39045;DHT22;52192;52.002;5.956;2023-07-08T05:57:42;22.70;55.90
39045;DHT22;52192;52.002;5.956;2023-07-08T06:00:09;22.80;55.90
39045;DHT22;52192;52.002;5.956;2023-07-08T06:02:36;22.80;55.80
39045;DHT22;52192;52.002;5.956;2023-07-08T06:05:02;22.90;55.60
39045;DHT22;52192;52.002;5.956;2023-07-08T06:07:27;22.90;55.50
39045;DHT22;52192;52.002;5.956;2023-07-08T06:09:53;23.00;55.40
39045;DHT22;52192;52.002;5.956;2023-07-08T06:12:21;23.00;55.40
39045;DHT22;52192;52.002;5.956;2023-07-08T06:14:47;23.10;55.50
39045;DHT22;52192;52.002;5.956;2023-07-08T06:17:13;23.20;56.10
39045;DHT22;52192;52.002;5.956;2023-07-08T06:19:39;23.20;55.30
39045;DHT22;52192;52.002;5.956;2023-07-08T06:22:05;23.20;55.20
39045;DHT22;52192;52.002;5.956;2023-07-08T06:24:31;23.30;55.30
39045;DHT22;52192;52.002;5.956;2023-07-08T06:26:56;23.30;55.30
39045;DHT22;52192;52.002;5.956;2023-07-08T06:29:22;23.30;55.30
39045;DHT22;52192;52.002;5.956;2023-07-08T06:31:47;23.40;55.30
39045;DHT22;52192;52.002;5.956;2023-07-08T06:34:13;23.40;55.30
39045;DHT22;52192;52.002;5.956;2023-07-08T06:36:39;23.50;55.40
39045;DHT22;52192;52.002;5.956;2023-07-08T06:39:04;23.50;55.30
39045;DHT22;52192;52.002;5.956;2023-07-08T06:41:33;23.60;55.30
39045;DHT22;52192;52.002;5.956;2023-07-08T06:43:58;23.60;55.30
39045;DHT22;52192;52.002;5.956;2023-07-08T06:46:24;23.60;56.00
39045;DHT22;52192;52.002;5.956;2023-07-08T06:48:50;23.70;55.30
39045;DHT22;52192;52.002;5.956;2023-07-08T06:51:16;23.80;55.30
39045;DHT22;52192;52.002;5.956;2023-07-08T06:53:41;23.80;55.10
39045;DHT22;52192;52.002;5.956;2023-07-08T06:56:07;23.90;55.30
39045;DHT22;52192;52.002;5.956;2023-07-08T06:58:33;24.00;55.20
39045;DHT22;52192;52.002;5.956;2023-07-08T07:00:59;24.00;55.20
39045;DHT22;52192;52.002;5.956;2023-07-08T07:03:25;24.10;55.30
39045;DHT22;52192;52.002;5.956;2023-07-08T07:05:51;24.00;55.30
39045;DHT22;52192;52.002;5.956;2023-07-08T07:08:17;24.10;55.20
39045;DHT22;52192;52.002;5.956;2023-07-08T07:10:42;24.20;55.30
39045;DHT22;52192;52.002;5.956;2023-07-08T07:13:08;24.20;55.10
39045;DHT22;52192;52.002;5.956;2023-07-08T07:15:34;24.30;55.10
39045;DHT22;52192;52.002;5.956;2023-07-08T07:18:00;24.40;55.10
39045;DHT22;52192;52.002;5.956;2023-07-08T07:20:26;24.40;55.10
39045;DHT22;52192;52.002;5.956;2023-07-08T07:22:52;24.50;55.00
39045;DHT22;52192;52.002;5.956;2023-07-08T07:25:19;24.60;55.00
39045;DHT22;52192;52.002;5.956;2023-07-08T07:27:44;24.60;55.00
39045;DHT22;52192;52.002;5.956;2023-07-08T07:30:11;24.70;54.90
39045;DHT22;52192;52.002;5.956;2023-07-08T07:32:41;24.80;54.80
39045;DHT22;52192;52.002;5.956;2023-07-08T07:35:11;24.90;54.60
39045;DHT22;52192;52.002;5.956;2023-07-08T07:37:39;24.90;54.60
39045;DHT22;52192;52.002;5.956;2023-07-08T07:40:12;25.00;54.50
39045;DHT22;52192;52.002;5.956;2023-07-08T07:42:40;25.10;54.50
39045;DHT22;52192;52.002;5.956;2023-07-08T07:45:07;25.10;54.40
39045;DHT22;52192;52.002;5.956;2023-07-08T07:47:33;25.20;54.40
39045;DHT22;52192;52.002;5.956;2023-07-08T07:49:59;25.30;54.40
39045;DHT22;52192;52.002;5.956;2023-07-08T07:52:25;25.40;54.40
39045;DHT22;52192;52.002;5.956;2023-07-08T07:54:51;25.50;54.20
39045;DHT22;52192;52.002;5.956;2023-07-08T07:57:19;25.60;54.20
39045;DHT22;52192;52.002;5.956;2023-07-08T07:59:46;25.60;54.10
39045;DHT22;52192;52.002;5.956;2023-07-08T08:02:12;25.70;54.00
39045;DHT22;52192;52.002;5.956;2023-07-08T08:04:37;25.80;54.00
39045;DHT22;52192;52.002;5.956;2023-07-08T08:07:03;25.90;53.90
39045;DHT22;52192;52.002;5.956;2023-07-08T08:09:29;26.00;53.80
39045;DHT22;52192;52.002;5.956;2023-07-08T08:11:55;26.10;53.80
39045;DHT22;52192;52.002;5.956;2023-07-08T08:14:21;26.20;53.80
39045;DHT22;52192;52.002;5.956;2023-07-08T08:16:47;26.30;53.80
39045;DHT22;52192;52.002;5.956;2023-07-08T08:19:13;26.40;53.70
39045;DHT22;52192;52.002;5.956;2023-07-08T08:21:38;26.40;53.70
39045;DHT22;52192;52.002;5.956;2023-07-08T08:24:04;26.50;53.70
39045;DHT22;52192;52.002;5.956;2023-07-08T08:26:30;26.50;53.60
39045;DHT22;52192;52.002;5.956;2023-07-08T08:28:56;26.60;53.40
39045;DHT22;52192;52.002;5.956;2023-07-08T08:31:22;26.60;53.30
39045;DHT22;52192;52.002;5.956;2023-07-08T08:33:48;26.70;53.30
39045;DHT22;52192;52.002;5.956;2023-07-08T08:36:13;26.80;53.20
39045;DHT22;52192;52.002;5.956;2023-07-08T08:38:39;26.90;53.00
39045;DHT22;52192;52.002;5.956;2023-07-08T08:41:12;26.90;52.90
39045;DHT22;52192;52.002;5.956;2023-07-08T08:43:39;27.00;52.90
39045;DHT22;52192;52.002;5.956;2023-07-08T08:48:59;27.10;53.10
39045;DHT22;52192;52.002;5.956;2023-07-08T08:51:28;27.20;53.00
39045;DHT22;52192;52.002;5.956;2023-07-08T08:53:57;27.30;53.00
39045;DHT22;52192;52.002;5.956;2023-07-08T08:56:29;27.40;53.00
39045;DHT22;52192;52.002;5.956;2023-07-08T09:01:29;27.60;53.00
39045;DHT22;52192;52.002;5.956;2023-07-08T09:04:28;27.60;52.80
39045;DHT22;52192;52.002;5.956;2023-07-08T09:07:04;27.80;52.90
39045;DHT22;52192;52.002;5.956;2023-07-08T09:09:37;27.80;52.80
39045;DHT22;52192;52.002;5.956;2023-07-08T09:12:11;27.80;52.80
39045;DHT22;52192;52.002;5.956;2023-07-08T09:14:39;27.90;52.80
39045;DHT22;52192;52.002;5.956;2023-07-08T09:17:16;28.00;52.80
39045;DHT22;52192;52.002;5.956;2023-07-08T09:19:49;28.10;52.80
39045;DHT22;52192;52.002;5.956;2023-07-08T09:22:38;28.10;52.80
39045;DHT22;52192;52.002;5.956;2023-07-08T09:27:40;28.30;52.80
39045;DHT22;52192;52.002;5.956;2023-07-08T09:30:14;28.40;52.70
39045;DHT22;52192;52.002;5.956;2023-07-08T09:32:40;28.50;52.70
39045;DHT22;52192;52.002;5.956;2023-07-08T09:35:07;28.60;52.60
39045;DHT22;52192;52.002;5.956;2023-07-08T09:37:38;28.70;52.60
39045;DHT22;52192;52.002;5.956;2023-07-08T09:40:15;28.90;52.50
39045;DHT22;52192;52.002;5.956;2023-07-08T09:42:42;29.00;52.40
39045;DHT22;52192;52.002;5.956;2023-07-08T09:45:14;29.10;52.20
39045;DHT22;52192;52.002;5.956;2023-07-08T09:47:40;29.20;52.00
39045;DHT22;52192;52.002;5.956;2023-07-08T09:50:21;29.30;51.90
39045;DHT22;52192;52.002;5.956;2023-07-08T09:52:48;29.50;51.80
39045;DHT22;52192;52.002;5.956;2023-07-08T09:55:17;29.60;51.60
39045;DHT22;52192;52.002;5.956;2023-07-08T09:57:45;29.60;51.30
39045;DHT22;52192;52.002;5.956;2023-07-08T10:00:15;29.70;51.20
39045;DHT22;52192;52.002;5.956;2023-07-08T10:02:57;29.80;51.20
39045;DHT22;52192;52.002;5.956;2023-07-08T10:05:29;30.00;50.70
39045;DHT22;52192;52.002;5.956;2023-07-08T10:07:57;30.10;50.40
39045;DHT22;52192;52.002;5.956;2023-07-08T10:10:33;30.20;50.20
39045;DHT22;52192;52.002;5.956;2023-07-08T10:13:26;30.30;50.20
39045;DHT22;52192;52.002;5.956;2023-07-08T10:16:14;30.40;49.80
39045;DHT22;52192;52.002;5.956;2023-07-08T10:18:41;30.50;49.60
39045;DHT22;52192;52.002;5.956;2023-07-08T10:43:06;31.50;48.20
39045;DHT22;52192;52.002;5.956;2023-07-08T10:45:46;31.60;48.20
39045;DHT22;52192;52.002;5.956;2023-07-08T10:53:58;31.90;47.90
39045;DHT22;52192;52.002;5.956;2023-07-08T10:56:40;32.00;47.80
39045;DHT22;52192;52.002;5.956;2023-07-08T11:02:02;32.20;47.70
39045;DHT22;52192;52.002;5.956;2023-07-08T11:07:42;32.60;47.50
39045;DHT22;52192;52.002;5.956;2023-07-08T11:10:21;32.70;47.30
39045;DHT22;52192;52.002;5.956;2023-07-08T11:16:30;33.00;46.80
39045;DHT22;52192;52.002;5.956;2023-07-08T11:20:54;33.20;46.40
39045;DHT22;52192;52.002;5.956;2023-07-08T11:25:50;33.40;46.10
39045;DHT22;52192;52.002;5.956;2023-07-08T11:28:20;33.40;45.30
39045;DHT22;52192;52.002;5.956;2023-07-08T11:30:49;33.40;45.50
39045;DHT22;52192;52.002;5.956;2023-07-08T11:33:17;33.40;45.40
39045;DHT22;52192;52.002;5.956;2023-07-08T11:35:48;33.60;45.30
39045;DHT22;52192;52.002;5.956;2023-07-08T11:38:17;33.70;45.30
39045;DHT22;52192;52.002;5.956;2023-07-08T11:41:11;33.90;45.30
39045;DHT22;52192;52.002;5.956;2023-07-08T11:43:58;34.00;45.00
39045;DHT22;52192;52.002;5.956;2023-07-08T11:46:26;34.10;44.90
39045;DHT22;52192;52.002;5.956;2023-07-08T11:48:55;34.20;44.60
39045;DHT22;52192;52.002;5.956;2023-07-08T11:51:31;34.20;44.00
39045;DHT22;52192;52.002;5.956;2023-07-08T11:59:26;34.40;44.20
39045;DHT22;52192;52.002;5.956;2023-07-08T12:04:34;34.70;44.10
39045;DHT22;52192;52.002;5.956;2023-07-08T12:07:29;34.80;44.30
39045;DHT22;52192;52.002;5.956;2023-07-08T12:10:05;34.80;43.40
39045;DHT22;52192;52.002;5.956;2023-07-08T12:12:35;34.80;43.80
39045;DHT22;52192;52.002;5.956;2023-07-08T12:15:23;34.90;43.70
39045;DHT22;52192;52.002;5.956;2023-07-08T12:17:56;35.00;43.10
39045;DHT22;52192;52.002;5.956;2023-07-08T12:20:27;35.10;43.20
39045;DHT22;52192;52.002;5.956;2023-07-08T12:22:53;35.20;43.00
39045;DHT22;52192;52.002;5.956;2023-07-08T12:25:23;35.20;42.50
39045;DHT22;52192;52.002;5.956;2023-07-08T12:27:50;35.20;42.50
39045;DHT22;52192;52.002;5.956;2023-07-08T12:30:16;35.20;42.40
39045;DHT22;52192;52.002;5.956;2023-07-08T12:32:43;35.30;43.10
39045;DHT22;52192;52.002;5.956;2023-07-08T12:35:27;35.40;42.20
39045;DHT22;52192;52.002;5.956;2023-07-08T12:37:57;35.50;42.50
39045;DHT22;52192;52.002;5.956;2023-07-08T12:40:27;35.70;42.60
39045;DHT22;52192;52.002;5.956;2023-07-08T12:42:53;35.80;42.20
39045;DHT22;52192;52.002;5.956;2023-07-08T12:45:22;35.90;41.80
39045;DHT22;52192;52.002;5.956;2023-07-08T12:47:48;35.90;42.00
39045;DHT22;52192;52.002;5.956;2023-07-08T12:50:15;35.90;41.90
39045;DHT22;52192;52.002;5.956;2023-07-08T12:52:44;36.10;41.70
39045;DHT22;52192;52.002;5.956;2023-07-08T12:55:11;36.10;41.60
39045;DHT22;52192;52.002;5.956;2023-07-08T12:57:39;36.30;41.50
39045;DHT22;52192;52.002;5.956;2023-07-08T13:00:05;36.30;41.50
39045;DHT22;52192;52.002;5.956;2023-07-08T13:02:32;36.40;41.40
39045;DHT22;52192;52.002;5.956;2023-07-08T13:05:01;36.40;41.40
39045;DHT22;52192;52.002;5.956;2023-07-08T13:07:38;36.40;41.00
39045;DHT22;52192;52.002;5.956;2023-07-08T13:10:06;36.50;40.70
39045;DHT22;52192;52.002;5.956;2023-07-08T13:12:35;36.50;40.50
39045;DHT22;52192;52.002;5.956;2023-07-08T13:15:05;36.50;40.70
39045;DHT22;52192;52.002;5.956;2023-07-08T13:17:34;36.50;40.70
39045;DHT22;52192;52.002;5.956;2023-07-08T13:20:03;36.60;40.30
39045;DHT22;52192;52.002;5.956;2023-07-08T13:22:29;36.80;40.40
39045;DHT22;52192;52.002;5.956;2023-07-08T13:25:03;36.80;40.20
39045;DHT22;52192;52.002;5.956;2023-07-08T13:27:29;36.90;40.20
39045;DHT22;52192;52.002;5.956;2023-07-08T13:29:57;37.10;39.90
39045;DHT22;52192;52.002;5.956;2023-07-08T13:32:32;37.10;39.60
39045;DHT22;52192;52.002;5.956;2023-07-08T13:34:57;37.20;39.60
39045;DHT22;52192;52.002;5.956;2023-07-08T13:37:23;37.30;39.60
39045;DHT22;52192;52.002;5.956;2023-07-08T13:39:52;37.40;39.50
39045;DHT22;52192;52.002;5.956;2023-07-08T13:42:18;37.40;39.40
39045;DHT22;52192;52.002;5.956;2023-07-08T13:44:47;37.40;39.40
39045;DHT22;52192;52.002;5.956;2023-07-08T13:47:29;37.40;39.10
39045;DHT22;52192;52.002;5.956;2023-07-08T13:50:22;37.50;39.00
39045;DHT22;52192;52.002;5.956;2023-07-08T13:52:54;37.50;39.00
39045;DHT22;52192;52.002;5.956;2023-07-08T13:55:21;37.60;38.70
39045;DHT22;52192;52.002;5.956;2023-07-08T13:57:59;37.60;38.20
39045;DHT22;52192;52.002;5.956;2023-07-08T14:00:28;37.60;38.30
39045;DHT22;52192;52.002;5.956;2023-07-08T14:02:54;37.70;38.40
39045;DHT22;52192;52.002;5.956;2023-07-08T14:05:20;37.70;38.00
39045;DHT22;52192;52.002;5.956;2023-07-08T14:07:47;37.80;38.30
39045;DHT22;52192;52.002;5.956;2023-07-08T14:10:14;37.80;37.90
39045;DHT22;52192;52.002;5.956;2023-07-08T14:12:40;37.80;37.70
39045;DHT22;52192;52.002;5.956;2023-07-08T14:15:06;37.90;37.70
39045;DHT22;52192;52.002;5.956;2023-07-08T14:17:32;37.80;37.60
39045;DHT22;52192;52.002;5.956;2023-07-08T14:19:58;37.80;37.10
39045;DHT22;52192;52.002;5.956;2023-07-08T14:22:26;37.80;37.30
39045;DHT22;52192;52.002;5.956;2023-07-08T14:24:53;37.80;37.40
39045;DHT22;52192;52.002;5.956;2023-07-08T14:27:18;37.90;37.50
39045;DHT22;52192;52.002;5.956;2023-07-08T14:29:49;38.00;37.80
39045;DHT22;52192;52.002;5.956;2023-07-08T14:32:24;38.00;37.90
39045;DHT22;52192;52.002;5.956;2023-07-08T14:34:57;38.10;37.80
39045;DHT22;52192;52.002;5.956;2023-07-08T14:37:24;38.10;37.80
39045;DHT22;52192;52.002;5.956;2023-07-08T14:39:51;38.10;37.80
39045;DHT22;52192;52.002;5.956;2023-07-08T14:42:18;38.20;37.60
39045;DHT22;52192;52.002;5.956;2023-07-08T14:44:46;38.20;37.30
39045;DHT22;52192;52.002;5.956;2023-07-08T14:47:15;38.10;36.70
39045;DHT22;52192;52.002;5.956;2023-07-08T14:49:41;38.10;36.60
39045;DHT22;52192;52.002;5.956;2023-07-08T14:52:07;38.00;36.30
39045;DHT22;52192;52.002;5.956;2023-07-08T14:54:33;38.10;36.60
39045;DHT22;52192;52.002;5.956;2023-07-08T14:56:59;38.10;36.70
39045;DHT22;52192;52.002;5.956;2023-07-08T14:59:28;38.20;36.20
39045;DHT22;52192;52.002;5.956;2023-07-08T15:01:55;38.20;35.90
39045;DHT22;52192;52.002;5.956;2023-07-08T15:04:22;38.20;35.90
39045;DHT22;52192;52.002;5.956;2023-07-08T15:06:48;38.20;35.60
39045;DHT22;52192;52.002;5.956;2023-07-08T15:09:16;38.20;35.80
39045;DHT22;52192;52.002;5.956;2023-07-08T15:11:44;38.30;35.60
39045;DHT22;52192;52.002;5.956;2023-07-08T15:14:24;38.40;35.50
39045;DHT22;52192;52.002;5.956;2023-07-08T15:16:51;38.30;35.10
39045;DHT22;52192;52.002;5.956;2023-07-08T15:19:18;38.10;35.10
39045;DHT22;52192;52.002;5.956;2023-07-08T15:21:44;37.80;35.10
39045;DHT22;52192;52.002;5.956;2023-07-08T15:24:11;37.60;35.10
39045;DHT22;52192;52.002;5.956;2023-07-08T15:26:43;37.50;35.50
39045;DHT22;52192;52.002;5.956;2023-07-08T15:29:21;37.40;35.40
39045;DHT22;52192;52.002;5.956;2023-07-08T15:31:47;37.50;35.60
39045;DHT22;52192;52.002;5.956;2023-07-08T15:34:15;37.50;35.80
39045;DHT22;52192;52.002;5.956;2023-07-08T15:36:41;37.50;35.90
39045;DHT22;52192;52.002;5.956;2023-07-08T15:39:07;37.50;35.80
39045;DHT22;52192;52.002;5.956;2023-07-08T15:41:34;37.40;36.20
39045;DHT22;52192;52.002;5.956;2023-07-08T15:43:59;37.40;35.80
39045;DHT22;52192;52.002;5.956;2023-07-08T15:46:34;37.30;36.20
39045;DHT22;52192;52.002;5.956;2023-07-08T15:49:01;37.40;35.80
39045;DHT22;52192;52.002;5.956;2023-07-08T15:51:27;37.50;35.90
39045;DHT22;52192;52.002;5.956;2023-07-08T15:53:54;37.60;35.60
39045;DHT22;52192;52.002;5.956;2023-07-08T15:56:20;37.60;35.90
39045;DHT22;52192;52.002;5.956;2023-07-08T15:58:47;37.50;36.00
39045;DHT22;52192;52.002;5.956;2023-07-08T16:01:20;37.30;36.00
39045;DHT22;52192;52.002;5.956;2023-07-08T16:03:47;37.20;36.20
39045;DHT22;52192;52.002;5.956;2023-07-08T16:06:14;37.10;36.30
39045;DHT22;52192;52.002;5.956;2023-07-08T16:08:40;37.00;36.20
39045;DHT22;52192;52.002;5.956;2023-07-08T16:11:18;37.00;36.40
39045;DHT22;52192;52.002;5.956;2023-07-08T16:13:46;37.10;36.40
39045;DHT22;52192;52.002;5.956;2023-07-08T16:16:13;37.10;36.00
39045;DHT22;52192;52.002;5.956;2023-07-08T16:18:39;37.00;35.80
39045;DHT22;52192;52.002;5.956;2023-07-08T16:21:06;36.80;36.40
39045;DHT22;52192;52.002;5.956;2023-07-08T16:23:32;36.60;36.70
39045;DHT22;52192;52.002;5.956;2023-07-08T16:25:59;36.30;37.10
39045;DHT22;52192;52.002;5.956;2023-07-08T16:28:37;36.10;37.30
39045;DHT22;52192;52.002;5.956;2023-07-08T16:31:18;36.00;38.10
39045;DHT22;52192;52.002;5.956;2023-07-08T16:33:45;35.90;38.40
39045;DHT22;52192;52.002;5.956;2023-07-08T16:36:19;36.00;38.50
39045;DHT22;52192;52.002;5.956;2023-07-08T16:38:46;36.00;39.10
39045;DHT22;52192;52.002;5.956;2023-07-08T16:41:13;36.10;39.80
39045;DHT22;52192;52.002;5.956;2023-07-08T16:43:40;36.00;39.90